Flight Track Log - Related Links

Times and Time Zones

All times are in EDT time to prevent confusion due to time zone crossing. See the CTL14 flight status page for this flight to view local times or setup timezone preferences in your user account.

Time Position Orientation Groundspeed Altitude Reporting Facility
EDT Latitude Longitude Course Direction KTS MPH feet Rate Location/Type
Fri 02:28:00 AM 39.9125 -83.2612 265° West  Level Estimated
Fri 02:29:00 AM 39.9002 -83.3139 266° West  Level Estimated
Fri 02:30:00 AM 39.9056 -83.3685 277° West  Level FlightAware
Fri 02:31:00 AM 39.9109 -83.4231 277° West  Level FlightAware
Fri 02:32:00 AM 39.9162 -83.4778 277° West  Level FlightAware
Fri 02:33:00 AM 39.9214 -83.5324 277° West  Level FlightAware
Fri 02:34:00 AM 39.9267 -83.5871 277° West  Level FlightAware
Fri 02:35:00 AM 39.9319 -83.6417 277° West  Level FlightAware
Fri 02:36:00 AM 39.9371 -83.6964 277° West  Level FlightAware
Fri 02:37:00 AM 39.9422 -83.7510 277° West  Level FlightAware
Fri 02:38:00 AM 39.9474 -83.8057 277° West  Level FlightAware
Fri 02:39:00 AM 39.9525 -83.8604 277° West  Level FlightAware
Fri 02:40:00 AM 39.9576 -83.9151 277° West  Level FlightAware
Fri 02:41:00 AM 39.9626 -83.9698 277° West  Level FlightAware
Fri 02:42:00 AM 39.9677 -84.0245 277° West  Level FlightAware
Fri 02:43:00 AM 39.9727 -84.0792 277° West  Level FlightAware
Fri 02:44:00 AM 39.9776 -84.1339 277° West  Level FlightAware
Fri 02:45:00 AM 39.9583 -84.1829 252° West  Level Estimated
Fri 02:46:00 AM 39.9494 -84.2368 258° West  Level FlightAware
Fri 02:47:00 AM 39.9405 -84.2907 258° West  Level FlightAware
Fri 02:48:00 AM 39.9316 -84.3445 258° West  Level FlightAware
Fri 02:49:00 AM 39.9227 -84.3983 258° West  Level FlightAware
Fri 02:50:00 AM 39.9137 -84.4521 258° West  Level FlightAware
Fri 02:51:00 AM 39.9047 -84.5059 258° West  Level FlightAware
Fri 02:52:00 AM 39.8957 -84.5597 258° West  Level FlightAware
Fri 02:53:00 AM 39.8867 -84.6135 258° West  Level FlightAware
Fri 02:54:00 AM 39.8776 -84.6672 258° West  Level FlightAware
Fri 02:55:00 AM 39.8685 -84.7210 258° West  Level FlightAware
Fri 02:56:00 AM 39.8594 -84.7747 258° West  Level FlightAware
Fri 02:57:00 AM 39.8502 -84.8284 258° West  Level FlightAware
Fri 02:58:00 AM 39.8411 -84.8821 257° West  Level FlightAware
Fri 02:59:00 AM 39.8319 -84.9358 257° West  Level FlightAware
Fri 03:00:00 AM 39.8227 -84.9894 257° West  Level FlightAware
Fri 03:01:00 AM 39.7964 -85.0325 250° West  Level Estimated
Fri 03:02:00 AM 39.7845 -85.0853 254° West  Level FlightAware
Fri 03:03:00 AM 39.7726 -85.1380 254° West  Level FlightAware
Fri 03:04:00 AM 39.7607 -85.1907 254° West  Level FlightAware
Fri 03:05:00 AM 39.7487 -85.2433 254° West  Level FlightAware
Fri 03:06:00 AM 39.7367 -85.2960 254° West  Level FlightAware
Fri 03:07:00 AM 39.7247 -85.3487 253° West  Level FlightAware
Fri 03:08:00 AM 39.7126 -85.4013 253° West  Level FlightAware
Fri 03:09:00 AM 39.7006 -85.4539 253° West  Level FlightAware
Fri 03:10:00 AM 39.6885 -85.5065 253° West  Level FlightAware
Fri 03:11:00 AM 39.6764 -85.5591 253° West  Level FlightAware
Fri 03:12:00 AM 39.6643 -85.6116 253° West  Level FlightAware
Fri 03:13:00 AM 39.6272 -85.6380 180° South  Level Estimated
Fri 03:14:00 AM 39.5902 -85.6643 191° South  Level Estimated
Fri 03:15:00 AM 39.5531 -85.6906 190° South  Level Estimated
Fri 03:16:00 AM 39.5168 -85.7184 211° Southwest  Level FlightAware
Fri 03:17:00 AM 39.4804 -85.7462 210° Southwest  Level FlightAware
Fri 03:18:00 AM 39.4440 -85.7739 210° Southwest  Level FlightAware
Fri 03:19:00 AM 39.4076 -85.8017 210° Southwest  Level FlightAware
Fri 03:20:00 AM 39.3711 -85.8293 210° Southwest  Level FlightAware
Fri 03:21:00 AM 39.3330 -85.8528 180° South  Level Estimated
Fri 03:22:00 AM 39.2948 -85.8762 180° South  Level Estimated
Fri 03:23:00 AM 39.2619 -85.8963 180° South  Level Estimated
Fri 03:24:00 AM 39.2619 -85.8963 180° South  Level Estimated
Fri 03:25:00 AM 39.2619 -85.8963 180° South  Level Estimated
Fri 03:26:00 AM 39.2619 -85.8963 180° South  Level Estimated
Fri 03:27:00 AM 39.2619 -85.8963 180° South  Level Estimated
Fri 03:28:00 AM 39.2619 -85.8963 180° South  Level Estimated
Fri 03:29:00 AM 39.2619 -85.8963 180° South  Level Estimated
Fri 03:30:00 AM 39.2619 -85.8963 180° South  Level Estimated
Fri 03:31:00 AM 39.2619 -85.8963 180° South  Level Estimated
Fri 03:32:00 AM 39.2619 -85.8963 180° South  Level Estimated
Fri 03:33:00 AM 39.2619 -85.8963 180° South  Level Estimated
Fri 03:34:00 AM 39.2619 -85.8963 180° South  Level Estimated
Fri 03:35:00 AM 39.2619 -85.8963 180° South  Level Estimated
Fri 03:36:00 AM 39.2619 -85.8963 180° South  Level Estimated
Fri 03:37:00 AM 39.2619 -85.8963 180° South  Level Estimated

Login

Don't have an account? Register now (free) for customized features, flight alerts, and more!